Time;durP1;ratioP1;P1;durP2;ratioP2;P2;SDS_P1;SDS_P2;PMS_P1;PMS_P2;Temp;Humidity;BMP_temperature;BMP_pressure;BME280_temperature;BME280_humidity;BME280_pressure;Samples;Min_cycle;Max_cycle;Signal;HPM_P1;HPM_P2
2022/12/05 00:00:28;;;;;;;;;45.75;32.75;;;;;5.88;63.04;101086.94;6340438;22;45262;-50
2022/12/05 00:02:54;;;;;;;;;45.00;35.75;;;;;5.87;63.07;101077.34;6340330;22;45305;-49
2022/12/05 00:05:19;;;;;;;;;53.00;40.00;;;;;5.86;63.11;101083.41;6339417;22;45347;-49
2022/12/05 00:07:44;;;;;;;;;39.50;29.50;;;;;5.85;63.07;101084.31;6339982;22;45958;-46
2022/12/05 00:10:10;;;;;;;;;41.50;34.75;;;;;5.87;63.24;101093.00;6340401;22;45266;-49
2022/12/05 00:12:36;;;;;;;;;45.75;38.50;;;;;5.85;63.08;101087.78;6340471;22;45420;-50
2022/12/05 00:15:02;;;;;;;;;39.00;32.75;;;;;5.86;63.12;101094.75;6339577;22;45259;-48
2022/12/05 00:17:27;;;;;;;;;39.00;33.00;;;;;5.85;63.10;101089.53;6340170;22;45569;-52
2022/12/05 00:19:52;;;;;;;;;34.75;26.00;;;;;5.86;62.96;101092.13;6340061;22;45251;-46
2022/12/05 00:22:18;;;;;;;;;38.75;33.75;;;;;5.86;63.15;101093.84;6340667;22;45285;-48
2022/12/05 00:24:43;;;;;;;;;34.25;30.25;;;;;5.83;63.00;101088.63;6340010;22;45443;-50
2022/12/05 00:27:08;;;;;;;;;40.00;31.75;;;;;5.85;63.24;101092.13;6339957;22;46198;-47
2022/12/05 00:29:34;;;;;;;;;36.00;30.00;;;;;5.85;63.18;101086.91;6340643;22;45244;-46
2022/12/05 00:31:59;;;;;;;;;40.00;28.25;;;;;5.84;63.43;101092.97;6339353;22;45289;-50
2022/12/05 00:34:25;;;;;;;;;46.00;35.75;;;;;5.82;63.09;101098.19;6340859;22;45853;-46
2022/12/05 00:36:50;;;;;;;;;37.50;32.25;;;;;5.81;63.31;101091.22;6340874;22;45976;-47
2022/12/05 00:39:16;;;;;;;;;38.00;33.50;;;;;5.79;63.32;101089.44;6341717;22;45069;-46
2022/12/05 00:41:42;;;;;;;;;39.50;32.50;;;;;5.79;63.20;101092.91;6340738;22;45322;-48
2022/12/05 00:44:10;;;;;;;;;47.00;35.00;;;;;5.77;63.27;101084.19;6341442;22;45246;-47
2022/12/05 00:46:35;;;;;;;;;39.00;32.25;;;;;5.75;63.29;101085.03;6340607;22;45279;-49
2022/12/05 00:49:03;;;;;;;;;32.25;31.75;;;;;5.77;63.35;101091.16;6339121;22;45650;-48
2022/12/05 00:51:36;;;;;;;;;44.25;36.00;;;;;5.76;63.14;101103.34;6341336;22;45440;-46
2022/12/05 00:54:04;;;;;;;;;36.75;33.25;;;;;5.73;62.99;101095.47;6340611;22;45368;-48
2022/12/05 00:56:30;;;;;;;;;42.00;34.50;;;;;5.72;63.24;101103.28;6341092;22;46163;-45
2022/12/05 00:58:58;;;;;;;;;35.25;31.75;;;;;5.70;63.38;101104.13;6341003;22;45118;-49
2022/12/05 01:01:27;;;;;;;;;33.50;31.50;;;;;5.69;63.44;101109.31;6341082;22;45085;-47
2022/12/05 01:03:54;;;;;;;;;38.25;34.00;;;;;5.69;63.30;101107.59;6341202;22;45187;-46
2022/12/05 01:06:20;;;;;;;;;36.75;31.00;;;;;5.68;63.47;101118.00;6341133;22;45222;-45
2022/12/05 01:08:46;;;;;;;;;46.75;32.25;;;;;5.67;63.19;101118.84;6341670;22;45159;-46
2022/12/05 01:11:15;;;;;;;;;35.00;32.75;;;;;5.66;63.36;101130.13;6341407;22;45304;-50
2022/12/05 01:13:41;;;;;;;;;33.50;26.50;;;;;5.64;63.53;101124.03;6340583;22;45468;-49
2022/12/05 01:16:17;;;;;;;;;36.50;33.00;;;;;5.65;63.42;101128.41;6340717;22;46148;-49
2022/12/05 01:18:43;;;;;;;;;40.25;35.25;;;;;5.65;63.23;101133.63;6341252;22;45251;-49
2022/12/05 01:21:08;;;;;;;;;38.75;32.25;;;;;5.62;63.20;101128.34;6341302;22;45258;-46
2022/12/05 01:23:34;;;;;;;;;42.75;35.25;;;;;5.64;63.39;101131.88;6340701;22;45381;-46
2022/12/05 01:25:59;;;;;;;;;44.50;33.00;;;;;5.64;63.27;101131.88;6341082;22;46077;-45
2022/12/05 01:28:24;;;;;;;;;41.00;34.75;;;;;5.63;63.29;101130.97;6341306;22;45170;-49
2022/12/05 01:30:50;;;;;;;;;40.25;36.00;;;;;5.63;63.32;101135.31;6339681;22;45225;-47
2022/12/05 01:33:16;;;;;;;;;43.25;38.25;;;;;5.65;63.20;101149.28;6340381;22;45307;-48
2022/12/05 01:35:42;;;;;;;;;52.75;38.50;;;;;5.65;63.12;101154.50;6340831;22;46402;-49
2022/12/05 01:38:10;;;;;;;;;39.25;32.00;;;;;5.64;63.46;101163.16;6341297;22;45261;-47
2022/12/05 01:40:36;;;;;;;;;38.75;32.25;;;;;5.64;63.14;101163.16;6341231;22;45180;-49
2022/12/05 01:43:02;;;;;;;;;38.50;34.25;;;;;5.65;63.41;101170.13;6340994;22;45261;-49
2022/12/05 01:45:37;;;;;;;;;48.00;36.00;;;;;5.65;63.46;101175.34;6340688;22;45180;-51
2022/12/05 01:48:06;;;;;;;;;43.50;33.75;;;;;5.65;63.41;101173.59;6340259;22;45258;-49
2022/12/05 01:50:33;;;;;;;;;44.00;35.50;;;;;5.64;63.46;101177.06;6341058;22;45162;-46
2022/12/05 01:52:59;;;;;;;;;46.50;39.00;;;;;5.63;63.54;101185.72;6340316;22;45195;-50
2022/12/05 01:55:25;;;;;;;;;42.50;37.50;;;;;5.63;63.30;101180.50;6340326;22;46064;-47
2022/12/05 01:57:50;;;;;;;;;43.75;36.75;;;;;5.64;63.50;101186.63;6340773;22;45234;-46
2022/12/05 02:00:18;;;;;;;;;42.50;34.50;;;;;5.64;63.35;101189.25;6340628;22;45250;-48
2022/12/05 02:02:50;;;;;;;;;41.25;36.00;;;;;5.60;63.36;101183.09;6338465;22;45472;-48
2022/12/05 02:05:27;;;;;;;;;36.25;33.00;;;;;5.62;63.24;101185.72;6340728;22;46189;-45
2022/12/05 02:07:53;;;;;;;;;36.00;32.50;;;;;5.59;63.22;101191.78;6340570;22;45226;-48
2022/12/05 02:10:19;;;;;;;;;30.50;27.00;;;;;5.60;63.38;101187.44;6340954;22;45219;-49
2022/12/05 02:12:45;;;;;;;;;42.75;36.00;;;;;5.58;63.19;101187.41;6340605;22;45437;-49
2022/12/05 02:15:15;;;;;;;;;46.50;37.50;;;;;5.57;63.46;101182.19;6340465;22;46342;-50
2022/12/05 02:17:58;;;;;;;;;40.50;34.25;;;;;5.56;63.35;101172.59;6340604;22;45327;-47
2022/12/05 02:20:29;;;;;;;;;39.75;33.75;;;;;5.56;63.48;101175.22;6341012;22;45582;-47
2022/12/05 02:23:16;;;;;;;;;46.25;35.75;;;;;5.54;63.39;101177.81;6340423;22;45154;-46
2022/12/05 02:25:59;;;;;;;;;38.50;31.75;;;;;5.52;63.17;101177.78;6341617;22;47075;-49
2022/12/05 02:28:57;;;;;;;;;46.75;36.75;;;;;5.52;63.52;101184.72;6342202;22;45184;-50
2022/12/05 02:31:46;;;;;;;;;42.00;33.00;;;;;5.52;63.32;101179.50;6342078;22;45088;-46
2022/12/05 02:34:18;;;;;;;;;37.75;33.75;;;;;5.51;63.44;101183.00;6341851;22;45301;-48
2022/12/05 02:36:52;;;;;;;;;37.00;34.00;;;;;5.50;63.57;101182.09;6342257;22;46212;-50
2022/12/05 02:39:31;;;;;;;;;39.75;35.25;;;;;5.51;63.38;101188.19;6342251;22;46060;-48
2022/12/05 02:42:11;;;;;;;;;42.75;35.25;;;;;5.50;63.57;101184.69;6342321;22;45240;-48
2022/12/05 02:44:49;;;;;;;;;38.50;35.50;;;;;5.47;63.77;101182.06;6341784;22;45390;-48
2022/12/05 02:47:21;;;;;;;;;42.25;34.25;;;;;5.47;63.44;101179.47;6341291;22;46249;-48
2022/12/05 02:49:48;;;;;;;;;42.50;35.75;;;;;5.44;63.60;101181.13;6341930;22;45198;-47
2022/12/05 02:52:16;;;;;;;;;38.00;31.75;;;;;5.43;63.44;101169.81;6342228;22;45159;-47
2022/12/05 02:54:45;;;;;;;;;43.50;38.00;;;;;5.41;63.67;101175.88;6341495;22;45317;-49
2022/12/05 02:57:12;;;;;;;;;40.00;33.25;;;;;5.39;63.45;101172.38;6341408;22;47973;-49
2022/12/05 02:59:38;;;;;;;;;45.50;38.50;;;;;5.37;63.41;101170.63;6341656;22;45265;-48
2022/12/05 03:02:03;;;;;;;;;46.50;38.75;;;;;5.35;63.52;101174.06;6339988;22;45184;-47
2022/12/05 03:04:30;;;;;;;;;50.75;36.50;;;;;5.34;63.53;101173.16;6341883;22;45523;-47
2022/12/05 03:07:02;;;;;;;;;46.75;36.50;;;;;5.34;63.55;101180.13;6341741;22;46519;-46
2022/12/05 03:09:32;;;;;;;;;35.75;30.75;;;;;5.30;63.29;101181.81;6341639;22;45203;-48
2022/12/05 03:12:17;;;;;;;;;52.00;38.25;;;;;5.30;63.48;101176.59;6341573;22;45264;-47
2022/12/05 03:14:48;;;;;;;;;40.25;35.00;;;;;5.28;63.44;101174.81;6341444;22;45428;-45
2022/12/05 03:17:20;;;;;;;;;44.75;36.25;;;;;5.27;63.55;101189.59;6341140;22;46043;-46
2022/12/05 03:19:57;;;;;;;;;36.75;35.00;;;;;5.26;63.49;101180.03;6342203;22;45253;-46
2022/12/05 03:22:53;;;;;;;;;46.25;36.25;;;;;5.23;63.47;101193.00;6341737;22;45143;-47
2022/12/05 03:25:24;;;;;;;;;44.00;39.50;;;;;5.21;63.63;101187.75;6341405;22;45250;-46
2022/12/05 03:28:03;;;;;;;;;45.75;38.25;;;;;5.19;63.61;101189.50;6339622;22;46081;-46
2022/12/05 03:30:31;;;;;;;;;53.75;39.50;;;;;5.20;63.81;101200.78;6341942;22;45258;-47
2022/12/05 03:33:09;;;;;;;;;49.00;38.00;;;;;5.19;63.66;101196.41;6342062;22;45233;-49
2022/12/05 03:35:49;;;;;;;;;52.50;40.00;;;;;5.15;63.59;101202.44;6341116;22;45141;-49
2022/12/05 03:38:24;;;;;;;;;48.75;40.50;;;;;5.14;63.88;101196.31;6340529;22;46235;-48
2022/12/05 03:41:05;;;;;;;;;48.25;40.00;;;;;5.13;63.53;101202.41;6341707;22;45332;-48
2022/12/05 03:43:45;;;;;;;;;50.25;40.00;;;;;5.13;63.66;101202.41;6342253;22;45133;-48
2022/12/05 03:46:52;;;;;;;;;55.50;44.50;;;;;5.11;63.51;101206.72;6341069;22;45234;-48
2022/12/05 03:49:31;;;;;;;;;53.00;43.75;;;;;5.12;63.68;101210.19;6326480;22;46288;-48
2022/12/05 03:52:11;;;;;;;;;49.00;40.25;;;;;5.11;63.58;101216.28;6341802;22;45168;-49
2022/12/05 03:54:45;;;;;;;;;54.75;41.00;;;;;5.08;63.76;101219.72;6341828;22;45253;-48
2022/12/05 03:57:21;;;;;;;;;52.50;43.25;;;;;5.10;63.47;101222.34;6341774;22;45313;-47
2022/12/05 04:00:09;;;;;;;;;48.50;40.00;;;;;5.09;63.71;101228.38;6341204;22;46904;-46
2022/12/05 04:02:37;;;;;;;;;58.50;41.25;;;;;5.08;63.67;101226.63;6340315;22;45167;-49
2022/12/05 04:05:10;;;;;;;;;56.50;41.00;;;;;5.08;63.74;101232.75;6340515;22;45257;-46
2022/12/05 04:07:38;;;;;;;;;46.00;38.75;;;;;5.08;63.72;101234.44;6341080;22;45405;-47
2022/12/05 04:10:11;;;;;;;;;52.25;43.25;;;;;5.05;63.41;101230.06;6341472;22;45195;-50
2022/12/05 04:12:40;;;;;;;;;54.25;43.25;;;;;5.05;63.61;101235.28;6341028;22;45285;-48
2022/12/05 04:15:13;;;;;;;;;53.50;40.25;;;;;5.02;63.49;101230.91;6340915;22;45347;-47
2022/12/05 04:17:55;;;;;;;;;53.50;40.25;;;;;5.03;63.49;101237.88;6341659;22;45270;-46
2022/12/05 04:23:21;;;;;;;;;58.50;44.00;;;;;5.01;63.56;101238.69;6341217;22;45304;-47
2022/12/05 04:25:49;;;;;;;;;50.75;39.50;;;;;5.01;63.74;101236.94;6341514;22;45192;-47
2022/12/05 04:28:33;;;;;;;;;52.00;42.25;;;;;5.00;63.62;101244.75;6341418;22;45141;-48
2022/12/05 04:31:16;;;;;;;;;67.75;49.50;;;;;5.00;63.67;101243.00;6341611;22;45285;-46
2022/12/05 04:33:49;;;;;;;;;58.00;45.75;;;;;5.01;63.84;101244.75;6341902;22;45176;-47
2022/12/05 04:36:19;;;;;;;;;59.50;47.00;;;;;5.01;63.68;101251.72;6341538;22;45221;-47
2022/12/05 04:39:09;;;;;;;;;56.25;42.50;;;;;4.96;63.90;101240.34;6341275;22;45326;-51
2022/12/05 04:41:42;;;;;;;;;48.00;40.00;;;;;4.98;63.61;101249.94;6341302;22;45220;-47
2022/12/05 04:44:13;;;;;;;;;55.75;39.75;;;;;4.99;63.94;101246.50;6340916;22;45317;-49
2022/12/05 04:46:41;;;;;;;;;74.00;53.75;;;;;5.00;63.72;101255.16;6341718;22;45631;-47
2022/12/05 04:49:10;;;;;;;;;58.75;45.75;;;;;4.99;63.63;101253.41;6340715;22;45163;-48
2022/12/05 04:51:37;;;;;;;;;61.75;46.50;;;;;5.00;63.87;101252.56;6341210;22;45486;-48
2022/12/05 04:54:16;;;;;;;;;52.50;39.75;;;;;4.98;63.94;101254.25;6341053;22;45372;-48
2022/12/05 04:56:44;;;;;;;;;55.75;41.75;;;;;4.98;63.60;101264.66;6341722;22;45224;-48
2022/12/05 04:59:10;;;;;;;;;54.25;39.00;;;;;4.95;64.01;101259.44;6341718;22;45264;-49
2022/12/05 05:01:46;;;;;;;;;48.50;39.75;;;;;4.97;63.79;101268.13;6341216;22;45241;-47
2022/12/05 05:04:18;;;;;;;;;54.25;40.25;;;;;4.97;63.77;101270.72;6340956;22;45264;-51
2022/12/05 05:06:43;;;;;;;;;48.50;40.00;;;;;4.95;63.70;101268.09;6341794;22;45222;-49
2022/12/05 05:09:09;;;;;;;;;49.00;41.50;;;;;4.95;63.86;101264.63;6339512;22;45362;-47
2022/12/05 05:11:35;;;;;;;;;37.25;29.25;;;;;4.94;63.84;101268.09;6340609;22;46017;-47
2022/12/05 05:14:01;;;;;;;;;52.00;42.25;;;;;4.94;63.82;101270.69;6340453;22;45253;-49
2022/12/05 05:16:36;;;;;;;;;52.00;40.50;;;;;4.94;63.64;101268.09;6341232;22;45188;-51
2022/12/05 05:19:02;;;;;;;;;51.50;40.00;;;;;4.92;63.71;101267.16;6341172;22;45260;-47
2022/12/05 05:21:30;;;;;;;;;53.50;41.75;;;;;4.93;63.98;101271.53;6340798;22;46260;-50
2022/12/05 05:23:56;;;;;;;;;41.25;36.25;;;;;4.93;63.86;101271.53;6340869;22;45199;-50
2022/12/05 05:26:22;;;;;;;;;55.25;40.50;;;;;4.93;63.69;101269.81;6341258;22;45160;-50
2022/12/05 05:28:49;;;;;;;;;56.75;43.75;;;;;4.94;63.94;101278.50;6341298;22;45419;-51
2022/12/05 05:31:15;;;;;;;;;56.50;43.00;;;;;4.94;63.94;101275.91;6340919;22;46158;-57
2022/12/05 05:33:41;;;;;;;;;43.25;33.00;;;;;4.94;63.66;101278.50;6340622;22;45246;-50
2022/12/05 05:36:09;;;;;;;;;49.25;41.25;;;;;4.95;63.68;101277.66;6341396;22;45281;-48
2022/12/05 05:38:43;;;;;;;;;54.75;41.00;;;;;4.92;63.74;101274.97;6339264;22;45400;-48
2022/12/05 05:41:18;;;;;;;;;49.50;40.25;;;;;4.95;63.89;101275.91;6340985;22;45352;-46
2022/12/05 05:43:44;;;;;;;;;55.00;45.25;;;;;4.96;63.91;101274.22;6340212;22;45313;-47
2022/12/05 05:46:10;;;;;;;;;50.25;39.25;;;;;4.97;63.97;101282.03;6341113;22;45121;-51
2022/12/05 05:48:36;;;;;;;;;58.50;42.00;;;;;4.98;63.95;101285.50;6341094;22;45468;-48
2022/12/05 05:51:02;;;;;;;;;48.00;38.50;;;;;4.97;63.97;101292.47;6340963;22;46208;-50
2022/12/05 05:53:28;;;;;;;;;53.50;39.75;;;;;4.94;63.99;101281.09;6340723;22;45160;-48
2022/12/05 05:55:53;;;;;;;;;46.00;38.75;;;;;4.97;63.59;101291.56;6340302;22;48072;-46
2022/12/05 05:58:19;;;;;;;;;47.00;39.75;;;;;5.00;63.80;101300.31;6340509;22;45155;-49
2022/12/05 06:00:44;;;;;;;;;56.00;44.50;;;;;5.01;64.00;101306.44;6341951;22;45297;-47
2022/12/05 06:03:09;;;;;;;;;58.25;45.75;;;;;5.01;64.29;101303.81;6341979;22;45242;-48
2022/12/05 06:05:35;;;;;;;;;55.25;43.25;;;;;4.98;64.19;101293.31;6342080;22;45365;-50
2022/12/05 06:08:01;;;;;;;;;54.25;40.25;;;;;5.04;63.93;101311.69;6342295;22;45500;-49
2022/12/05 06:10:28;;;;;;;;;43.75;37.25;;;;;5.04;64.25;101306.47;6342167;22;45899;-48
2022/12/05 06:12:54;;;;;;;;;42.75;36.50;;;;;5.04;64.03;101312.56;6341469;22;45265;-50
2022/12/05 06:15:19;;;;;;;;;43.75;37.25;;;;;5.04;64.04;101309.97;6341392;22;45226;-46
2022/12/05 06:17:44;;;;;;;;;49.50;36.75;;;;;5.03;63.81;101310.81;6341969;22;45319;-46
2022/12/05 06:20:10;;;;;;;;;42.75;35.75;;;;;5.05;63.89;101313.44;6340523;22;46225;-48
2022/12/05 06:22:35;;;;;;;;;37.00;33.25;;;;;5.04;64.03;101316.88;6341516;22;45097;-46
2022/12/05 06:25:00;;;;;;;;;48.25;37.50;;;;;5.04;64.05;101322.09;6341672;22;45139;-46
2022/12/05 06:27:30;;;;;;;;;36.75;32.50;;;;;5.01;64.25;101322.06;6342158;22;45222;-48
2022/12/05 06:29:55;;;;;;;;;38.75;34.25;;;;;5.04;64.06;101333.41;6341389;22;46114;-46
2022/12/05 06:32:20;;;;;;;;;40.75;33.75;;;;;5.04;63.93;101332.50;6341898;22;45241;-50
2022/12/05 06:34:46;;;;;;;;;33.75;31.00;;;;;5.00;63.73;101336.78;6342363;22;45219;-48
2022/12/05 06:37:11;;;;;;;;;35.00;31.50;;;;;5.01;64.08;101333.34;6340284;22;45476;-47
2022/12/05 06:39:37;;;;;;;;;33.75;27.50;;;;;5.02;64.03;101342.91;6342182;22;46217;-47
2022/12/05 06:42:03;;;;;;;;;39.25;34.75;;;;;5.03;63.89;101341.16;6341675;22;45267;-47
2022/12/05 06:44:28;;;;;;;;;35.75;30.75;;;;;5.02;64.28;101342.06;6340545;22;45321;-48
2022/12/05 06:46:54;;;;;;;;;36.25;29.25;;;;;5.02;64.20;101344.66;6341586;22;45234;-50
2022/12/05 06:49:19;;;;;;;;;49.00;35.25;;;;;5.01;64.12;101337.69;6339651;22;45929;-48
2022/12/05 06:51:45;;;;;;;;;35.50;33.00;;;;;5.02;64.21;101355.06;6341928;22;45645;-47
2022/12/05 06:54:11;;;;;;;;;37.75;31.25;;;;;4.99;64.22;101344.59;6341665;22;45328;-47
2022/12/05 06:56:37;;;;;;;;;40.75;33.75;;;;;5.01;63.93;101348.97;6341604;22;45468;-51
2022/12/05 06:59:02;;;;;;;;;45.75;33.25;;;;;5.01;64.14;101348.09;6341922;22;45258;-47
2022/12/05 07:01:41;;;;;;;;;49.50;37.25;;;;;5.01;64.21;101351.56;6341457;22;45226;-51
2022/12/05 07:04:19;;;;;;;;;46.25;34.50;;;;;5.01;64.18;101353.31;6341117;22;45305;-48
2022/12/05 07:06:45;;;;;;;;;36.25;30.75;;;;;5.01;64.22;101361.13;6341602;22;45245;-48
2022/12/05 07:09:10;;;;;;;;;50.00;36.25;;;;;5.02;64.06;101368.97;6341415;22;46933;-49
2022/12/05 07:11:36;;;;;;;;;56.50;42.00;;;;;5.02;64.06;101363.75;6340846;22;45170;-48
2022/12/05 07:14:03;;;;;;;;;46.25;37.00;;;;;5.03;64.37;101372.44;6339519;22;45151;-48
2022/12/05 07:16:28;;;;;;;;;41.25;35.25;;;;;5.05;64.21;101375.97;6341444;22;45440;-46
2022/12/05 07:18:54;;;;;;;;;46.00;38.00;;;;;5.04;64.21;101376.81;6341435;22;45242;-49
2022/12/05 07:21:21;;;;;;;;;45.75;37.25;;;;;5.04;64.00;101379.41;6341347;22;45427;-47
2022/12/05 07:23:47;;;;;;;;;40.50;37.00;;;;;5.04;64.10;101382.00;6341304;22;45281;-47
2022/12/05 07:26:15;;;;;;;;;55.75;42.75;;;;;5.05;64.21;101383.78;6341287;22;45340;-47
2022/12/05 07:28:41;;;;;;;;;46.25;39.50;;;;;5.03;64.35;101383.75;6329923;22;46325;-49
2022/12/05 07:31:09;;;;;;;;;40.00;35.00;;;;;5.04;64.12;101388.13;6326507;22;45822;-47
2022/12/05 07:33:35;;;;;;;;;44.25;34.50;;;;;5.03;63.96;101394.19;6339673;22;45708;-47
2022/12/05 07:36:03;;;;;;;;;47.50;39.75;;;;;5.04;63.91;101395.94;6339670;22;45401;-47
2022/12/05 07:38:29;;;;;;;;;44.75;37.75;;;;;5.05;64.19;101404.63;6340207;22;46119;-46
2022/12/05 07:40:54;;;;;;;;;40.75;34.50;;;;;5.02;64.22;101402.84;6339923;22;45255;-48
2022/12/05 07:43:19;;;;;;;;;43.50;38.25;;;;;5.05;64.05;101405.47;6340323;22;45270;-51
2022/12/05 07:45:45;;;;;;;;;49.75;38.00;;;;;5.07;64.03;101418.56;6339957;22;45451;-47
2022/12/05 07:48:10;;;;;;;;;44.25;37.50;;;;;5.06;64.03;101414.19;6339613;22;45255;-48
2022/12/05 07:50:36;;;;;;;;;51.00;36.25;;;;;5.06;64.15;101419.41;6340150;22;45180;-51
2022/12/05 07:53:01;;;;;;;;;47.75;37.25;;;;;5.04;64.58;101423.69;6340436;22;45414;-47
2022/12/05 07:55:26;;;;;;;;;47.00;38.25;;;;;5.04;64.18;101419.38;6339703;22;45496;-49
2022/12/05 07:57:52;;;;;;;;;49.25;39.25;;;;;5.05;64.01;101417.66;6337834;22;47216;-48
2022/12/05 08:00:18;;;;;;;;;47.00;32.25;;;;;5.05;64.12;101420.25;6338176;22;45280;-47
2022/12/05 08:02:43;;;;;;;;;43.25;36.00;;;;;5.05;64.26;101412.44;6335810;22;45258;-49
2022/12/05 08:05:08;;;;;;;;;46.25;38.25;;;;;5.05;64.24;101422.84;6339767;22;45229;-51
2022/12/05 08:07:33;;;;;;;;;44.00;37.00;;;;;5.06;64.25;101432.44;6339326;22;46070;-52
2022/12/05 08:09:59;;;;;;;;;46.50;39.25;;;;;5.06;64.25;101435.03;6340054;22;45242;-48
2022/12/05 08:12:24;;;;;;;;;49.25;36.50;;;;;5.06;64.29;101435.03;6340262;22;45607;-50
2022/12/05 08:14:49;;;;;;;;;41.50;36.25;;;;;5.06;64.33;101435.03;6338377;22;45481;-50
2022/12/05 08:17:15;;;;;;;;;46.00;35.25;;;;;5.07;64.14;101446.31;6339100;22;46046;-49
2022/12/05 08:19:40;;;;;;;;;43.50;34.75;;;;;5.06;64.10;101448.06;6340123;22;45246;-50
2022/12/05 08:22:05;;;;;;;;;45.75;38.25;;;;;5.06;64.11;101445.47;6339772;22;45239;-47
2022/12/05 08:24:31;;;;;;;;;45.00;37.25;;;;;5.05;64.10;101444.56;6337786;22;45349;-47
2022/12/05 08:26:56;;;;;;;;;52.25;38.50;;;;;5.05;64.30;101444.56;6339701;22;45269;-47
2022/12/05 08:29:22;;;;;;;;;43.50;38.75;;;;;5.06;64.19;101442.84;6339575;22;45352;-49
2022/12/05 08:31:49;;;;;;;;;48.25;38.50;;;;;5.08;64.05;101442.88;6333177;22;45361;-49
2022/12/05 08:34:16;;;;;;;;;42.00;36.00;;;;;5.04;64.32;101440.22;6337240;22;45512;-50
2022/12/05 08:36:41;;;;;;;;;53.00;37.75;;;;;5.08;64.03;101443.78;6337906;22;46145;-47
2022/12/05 08:39:10;;;;;;;;;39.75;36.25;;;;;5.09;64.35;101448.13;6337753;22;45357;-48
2022/12/05 08:41:36;;;;;;;;;46.00;36.50;;;;;5.09;64.27;101450.72;6340050;22;45319;-50
2022/12/05 08:44:04;;;;;;;;;39.50;36.25;;;;;5.10;64.24;101457.69;6340738;22;45222;-48
2022/12/05 08:46:35;;;;;;;;;46.50;38.75;;;;;5.08;64.40;101450.69;6340251;22;46258;-48
2022/12/05 08:49:01;;;;;;;;;46.75;35.50;;;;;5.08;64.31;101454.19;6340462;22;45385;-48
2022/12/05 08:51:26;;;;;;;;;37.50;29.50;;;;;5.09;64.21;101453.31;6341395;22;45242;-47
2022/12/05 08:53:51;;;;;;;;;43.25;37.75;;;;;5.09;64.46;101449.84;6341072;22;45226;-47
2022/12/05 08:56:17;;;;;;;;;44.75;34.50;;;;;5.10;64.34;101457.69;6340532;22;45296;-46
2022/12/05 08:58:42;;;;;;;;;36.25;32.00;;;;;5.07;64.39;101452.44;6341078;22;45212;-46
2022/12/05 09:01:16;;;;;;;;;49.00;39.75;;;;;5.08;64.44;101472.44;6335556;22;45447;-49
2022/12/05 09:03:43;;;;;;;;;45.00;38.25;;;;;5.10;64.16;101468.13;6340354;22;45309;-46
2022/12/05 09:06:18;;;;;;;;;52.00;39.00;;;;;5.11;64.17;101475.09;6340769;22;46224;-45
2022/12/05 09:08:44;;;;;;;;;47.00;37.00;;;;;5.11;64.53;101472.47;6340531;22;45180;-46
2022/12/05 09:11:16;;;;;;;;;46.00;36.25;;;;;5.12;64.23;101475.94;6340452;22;45187;-46
2022/12/05 09:13:42;;;;;;;;;45.50;37.75;;;;;5.08;64.12;101467.22;6338757;22;45408;-49
2022/12/05 09:16:22;;;;;;;;;42.25;37.00;;;;;5.10;64.19;101468.13;6340578;22;45240;-50
2022/12/05 09:18:50;;;;;;;;;50.50;39.75;;;;;5.12;64.21;101475.94;6338892;22;45524;-51
2022/12/05 09:21:25;;;;;;;;;43.25;38.25;;;;;5.08;64.39;101468.94;6340903;22;45179;-51
2022/12/05 09:23:51;;;;;;;;;45.00;37.75;;;;;5.09;64.62;101468.97;6338537;22;45839;-48
2022/12/05 09:26:24;;;;;;;;;55.00;44.00;;;;;5.13;64.10;101477.72;6340608;22;45275;-46
2022/12/05 09:28:50;;;;;;;;;56.50;45.25;;;;;5.14;64.41;101485.56;6340213;22;45233;-47
2022/12/05 09:31:19;;;;;;;;;45.50;38.25;;;;;5.15;64.37;101476.91;6334955;22;45273;-49
2022/12/05 09:33:46;;;;;;;;;47.25;39.50;;;;;5.13;64.27;101478.63;6340291;22;45386;-48
2022/12/05 09:36:15;;;;;;;;;49.75;40.00;;;;;5.17;64.41;101485.63;6340136;22;46172;-51
2022/12/05 09:38:41;;;;;;;;;45.00;40.50;;;;;5.17;64.43;101488.25;6341337;22;45400;-47
2022/12/05 09:44:46;;;;;;;;;46.00;39.00;;;;;5.19;64.36;101501.28;6341732;22;45381;-48
2022/12/05 09:47:24;;;;;;;;;52.50;39.50;;;;;5.21;64.53;101503.09;6341743;22;46371;-47
2022/12/05 09:49:57;;;;;;;;;52.00;40.00;;;;;5.23;64.40;101510.91;6341936;22;45292;-47
2022/12/05 09:52:34;;;;;;;;;50.00;40.00;;;;;5.25;64.44;101501.41;6342375;22;45187;-49
2022/12/05 09:55:09;;;;;;;;;44.00;37.00;;;;;5.28;64.54;101508.41;6341683;22;45350;-46
2022/12/05 09:57:39;;;;;;;;;48.75;40.75;;;;;5.30;64.58;101506.72;6341113;22;45367;-47
2022/12/05 10:00:06;;;;;;;;;46.25;40.00;;;;;5.32;64.46;101515.44;6338800;22;45254;-50
2022/12/05 10:03:00;;;;;;;;;56.75;42.25;;;;;5.33;64.69;101512.00;6334246;22;45662;-47
2022/12/05 10:05:38;;;;;;;;;55.75;43.25;;;;;5.35;64.42;101516.38;6327060;22;45563;-49
2022/12/05 10:08:12;;;;;;;;;57.75;43.25;;;;;5.36;64.43;101512.06;6340612;22;45256;-46
2022/12/05 10:10:59;;;;;;;;;56.50;42.00;;;;;5.40;64.70;101520.84;6340142;22;45188;-47
2022/12/05 10:13:47;;;;;;;;;58.75;47.50;;;;;5.43;64.74;101513.06;6339816;22;45319;-46
2022/12/05 10:16:46;;;;;;;;;60.75;44.25;;;;;5.47;64.70;101515.75;6340533;22;45306;-47
2022/12/05 10:19:17;;;;;;;;;54.75;41.50;;;;;5.47;64.59;101510.56;6340561;22;45542;-48
2022/12/05 10:21:55;;;;;;;;;57.50;40.50;;;;;5.53;64.65;101515.88;6338148;22;45401;-47
2022/12/05 10:24:29;;;;;;;;;51.25;39.75;;;;;5.56;64.70;101519.38;6340427;22;45289;-49
2022/12/05 10:27:03;;;;;;;;;53.50;39.75;;;;;5.58;64.42;101517.69;6341226;22;45267;-49
2022/12/05 10:29:42;;;;;;;;;53.50;40.25;;;;;5.61;64.76;101523.84;6341422;22;45640;-46
2022/12/05 10:32:22;;;;;;;;;51.75;40.00;;;;;5.62;64.62;101515.19;6335202;22;45313;-45
2022/12/05 10:34:49;;;;;;;;;45.00;35.00;;;;;5.60;64.77;101511.66;6341028;22;45255;-48
2022/12/05 10:37:18;;;;;;;;;52.75;42.75;;;;;5.62;64.34;101507.34;6342063;22;45265;-48
2022/12/05 10:39:44;;;;;;;;;53.75;41.25;;;;;5.62;64.48;101512.56;6340871;22;45261;-47
2022/12/05 10:42:26;;;;;;;;;54.25;42.00;;;;;5.67;64.59;101525.66;6341067;22;45269;-47
2022/12/05 10:44:57;;;;;;;;;57.75;42.50;;;;;5.67;64.44;101526.56;6341121;22;45175;-48
2022/12/05 10:47:22;;;;;;;;;56.75;42.00;;;;;5.66;64.54;101518.69;6341028;22;45266;-48
2022/12/05 10:49:48;;;;;;;;;55.00;41.25;;;;;5.66;64.43;101519.59;6341638;22;45353;-47
2022/12/05 10:52:15;;;;;;;;;50.00;38.50;;;;;5.69;64.32;101521.38;6341769;22;45337;-51
2022/12/05 10:54:46;;;;;;;;;55.25;42.50;;;;;5.68;64.24;101519.63;6341296;22;45170;-48
2022/12/05 10:57:28;;;;;;;;;49.75;38.50;;;;;5.69;64.33;101519.63;6340859;22;45326;-46
2022/12/05 10:59:55;;;;;;;;;51.25;41.00;;;;;5.68;64.18;101517.88;6340913;22;47446;-47
2022/12/05 11:02:28;;;;;;;;;57.00;47.25;;;;;5.69;64.16;101526.59;6335639;22;45408;-45
2022/12/05 11:04:55;;;;;;;;;59.00;43.25;;;;;5.68;64.21;101515.25;6341475;22;45275;-45
2022/12/05 11:07:34;;;;;;;;;63.75;49.75;;;;;5.70;64.24;101523.13;6341287;22;45215;-48
2022/12/05 11:10:02;;;;;;;;;59.50;47.75;;;;;5.69;64.22;101517.03;6341679;22;45356;-48
2022/12/05 11:12:36;;;;;;;;;67.25;50.25;;;;;5.70;64.17;101521.41;6341487;22;45249;-49
2022/12/05 11:15:21;;;;;;;;;63.25;48.00;;;;;5.70;64.29;101517.91;6340994;22;45139;-45
2022/12/05 11:17:48;;;;;;;;;59.50;46.00;;;;;5.70;64.12;101521.41;6340869;22;45304;-45
2022/12/05 11:20:19;;;;;;;;;56.00;43.00;;;;;5.70;64.24;101529.22;6340915;22;47028;-46
2022/12/05 11:22:49;;;;;;;;;48.75;38.00;;;;;5.71;64.14;101530.13;6341675;22;45368;-46
2022/12/05 11:25:27;;;;;;;;;58.25;42.50;;;;;5.72;64.40;101531.84;6341148;22;45239;-46
2022/12/05 11:27:53;;;;;;;;;57.25;41.00;;;;;5.73;64.39;101524.94;6341462;22;45208;-45
2022/12/05 11:30:23;;;;;;;;;52.75;40.25;;;;;5.73;64.29;101520.56;6341775;22;45911;-45
2022/12/05 11:32:49;;;;;;;;;55.25;42.00;;;;;5.72;64.28;101526.63;6336975;22;45234;-44
2022/12/05 11:35:25;;;;;;;;;49.00;38.75;;;;;5.71;64.15;101532.72;6340653;22;45247;-46